Dades meteomassalio
Diari Summary for Juliol 2, 2017 Units:  English    Metric   Both
« Previous Day
Next Day »
Diari Semanal Mensual Anual Personalitzat
  Maxima: Minima: Mijana:
Temperatura: TemperatureF °F 56.8 °F 68.3 °F
Rosada: DewpointF °F 45.0 °F 48 °F
Humitat: Humidity % 33 % 50 %
Velocitat del vent: WindSpeedMPH mph 0.0 mph 12.9 mph
Racha vent: WindSpeedGustMPH mph - -
Vent:- - WNW
Pressio: PressureIn in 30.14 in -
Pluja: 0.00 in    
Historical Graphs
 
 
Tabular Data for Juliol 2, 2017
Time Temperature Dew Point Pressure Wind Wind Speed Wind Gust Humidity Rainfall Rate (Hourly) solar Conditions
TemperatureF °F DewpointF °F PressureIn in Calm     Humidity % HourlyPrecipIn in SolarRadiationWatts/m^2 W/m2 Conditions
00:03 61.2 °F 48.5 °F 30.27 in West 11.5 mph 11.5 mph 63 % 0.00 in 0.0 W/m2 CLR
00:08 61.1 °F 48.4 °F 30.27 in West 11.5 mph 11.5 mph 63 % 0.00 in 0.0 W/m2 CLR
00:13 60.9 °F 48.2 °F 30.27 in WNW 8.1 mph 8.1 mph 63 % 0.00 in 0.0 W/m2 CLR
00:18 60.8 °F 48.1 °F 30.27 in West 15.0 mph 15.0 mph 63 % 0.00 in 0.0 W/m2 CLR
00:23 60.7 °F 48.0 °F 30.27 in WNW 12.7 mph 12.7 mph 63 % 0.00 in 0.0 W/m2 CLR
00:28 60.6 °F 47.9 °F 30.27 in West 11.5 mph 11.5 mph 63 % 0.00 in 0.0 W/m2 CLR
00:33 60.5 °F 47.8 °F 30.27 in West 12.7 mph 12.7 mph 63 % 0.00 in 0.0 W/m2 CLR
00:38 60.2 °F 47.6 °F 30.27 in WNW 12.7 mph 12.7 mph 63 % 0.00 in 0.0 W/m2 CLR
00:43 60.1 °F 47.9 °F 30.27 in West 14.0 mph 14.0 mph 64 % 0.00 in 0.0 W/m2 CLR
00:48 60.1 °F 47.5 °F 30.28 in West 12.7 mph 12.7 mph 63 % 0.00 in 0.0 W/m2 CLR
00:53 60.0 °F 47.4 °F 30.27 in WNW 16.1 mph 16.1 mph 63 % 0.00 in 0.0 W/m2 CLR
00:58 59.9 °F 47.3 °F 30.28 in NW 11.5 mph 11.5 mph 63 % 0.00 in 0.0 W/m2 CLR
01:03 59.7 °F 47.5 °F 30.28 in West 13.8 mph 13.8 mph 64 % 0.00 in 0.0 W/m2 CLR
01:08 59.6 °F 47.4 °F 30.27 in West 21.9 mph 21.9 mph 64 % 0.00 in 0.0 W/m2 CLR
01:13 59.6 °F 47.4 °F 30.27 in NW 13.8 mph 13.8 mph 64 % 0.00 in 0.0 W/m2 CLR
01:18 59.6 °F 47.4 °F 30.27 in WNW 12.7 mph 12.7 mph 64 % 0.00 in 0.0 W/m2 CLR
01:23 59.6 °F 47.4 °F 30.27 in West 15.0 mph 15.0 mph 64 % 0.00 in 0.0 W/m2 CLR
01:28 59.5 °F 47.3 °F 30.28 in WNW 15.0 mph 15.0 mph 64 % 0.00 in 0.0 W/m2 CLR
01:33 59.4 °F 47.2 °F 30.28 in West 13.8 mph 13.8 mph 64 % 0.00 in 0.0 W/m2 CLR
01:38 59.4 °F 47.2 °F 30.28 in West 16.1 mph 16.1 mph 64 % 0.00 in 0.0 W/m2 CLR
01:43 59.4 °F 47.2 °F 30.28 in West 16.1 mph 16.1 mph 64 % 0.00 in 0.0 W/m2 CLR
01:48 59.4 °F 46.8 °F 30.28 in West 15.0 mph 15.0 mph 63 % 0.00 in 0.0 W/m2 CLR
01:53 59.3 °F 46.7 °F 30.27 in WNW 23.0 mph 23.0 mph 63 % 0.00 in 0.0 W/m2 CLR
01:58 59.2 °F 46.6 °F 30.27 in West 15.0 mph 15.0 mph 63 % 0.00 in 0.0 W/m2 CLR
02:03 59.1 °F 46.5 °F 30.27 in WNW 16.1 mph 16.1 mph 63 % 0.00 in 0.0 W/m2 CLR
02:08 59.0 °F 46.4 °F 30.27 in West 13.8 mph 13.8 mph 63 % 0.00 in 0.0 W/m2 CLR
02:13 58.9 °F 46.3 °F 30.27 in West 16.1 mph 16.1 mph 63 % 0.00 in 0.0 W/m2 CLR
02:18 58.9 °F 46.3 °F 30.27 in West 19.6 mph 19.6 mph 63 % 0.00 in 0.0 W/m2 CLR
02:23 58.9 °F 46.3 °F 30.27 in WNW 19.6 mph 19.6 mph 63 % 0.00 in 0.0 W/m2 CLR
02:28 58.8 °F 46.2 °F 30.27 in WNW 17.0 mph 17.0 mph 63 % 0.00 in 0.0 W/m2 CLR
02:33 58.8 °F 46.2 °F 30.27 in West 23.0 mph 23.0 mph 63 % 0.00 in 0.0 W/m2 CLR
02:38 58.7 °F 46.1 °F 30.27 in WNW 19.0 mph 19.0 mph 63 % 0.00 in 0.0 W/m2 CLR
02:43 58.7 °F 46.1 °F 30.27 in West 20.7 mph 20.7 mph 63 % 0.00 in 0.0 W/m2 CLR
02:48 58.7 °F 46.1 °F 30.27 in West 20.7 mph 20.7 mph 63 % 0.00 in 0.0 W/m2 CLR
02:53 58.7 °F 46.1 °F 30.27 in WSW 21.9 mph 21.9 mph 63 % 0.00 in 0.0 W/m2 CLR
02:58 58.7 °F 46.1 °F 30.26 in WNW 19.6 mph 19.6 mph 63 % 0.00 in 0.0 W/m2 CLR
03:03 58.7 °F 46.1 °F 30.26 in West 25.3 mph 25.3 mph 63 % 0.00 in 0.0 W/m2 CLR
03:08 58.7 °F 46.1 °F 30.26 in West 26.5 mph 26.5 mph 63 % 0.00 in 0.0 W/m2 CLR
03:13 58.6 °F 46.0 °F 30.26 in West 23.0 mph 23.0 mph 63 % 0.00 in 0.0 W/m2 CLR
03:14 58.6 °F 46.5 °F 30.26 in West 23.0 mph 23.0 mph 64 % 0.00 in 0.0 W/m2 CLR
03:19 58.5 °F 46.4 °F 30.25 in WNW 21.0 mph 21.0 mph 64 % 0.00 in 0.0 W/m2 CLR
03:24 58.5 °F 46.4 °F 30.25 in WSW 21.0 mph 21.0 mph 64 % 0.00 in 0.0 W/m2 CLR
03:29 58.5 °F 46.4 °F 30.25 in WNW 25.3 mph 25.3 mph 64 % 0.00 in 0.0 W/m2 CLR
03:34 58.4 °F 46.3 °F 30.25 in West 24.2 mph 24.2 mph 64 % 0.00 in 0.0 W/m2 CLR
03:39 58.3 °F 46.2 °F 30.25 in NW 28.8 mph 28.8 mph 64 % 0.00 in 0.0 W/m2 CLR
03:44 58.4 °F 46.3 °F 30.25 in WNW 23.0 mph 23.0 mph 64 % 0.00 in 0.0 W/m2 CLR
03:49 58.3 °F 46.2 °F 30.26 in WNW 24.2 mph 24.2 mph 64 % 0.00 in 0.0 W/m2 CLR
03:54 58.2 °F 46.5 °F 30.25 in West 23.0 mph 23.0 mph 65 % 0.00 in 0.0 W/m2 CLR
03:59 58.3 °F 46.2 °F 30.25 in WNW 18.4 mph 18.4 mph 64 % 0.00 in 0.0 W/m2 CLR
04:04 58.2 °F 46.5 °F 30.26 in West 18.4 mph 18.4 mph 65 % 0.00 in 0.0 W/m2 CLR
04:05 58.2 °F 46.1 °F 30.26 in West 19.6 mph 19.6 mph 64 % 0.00 in 0.0 W/m2 CLR
04:10 58.1 °F 46.0 °F 30.26 in WNW 17.3 mph 17.3 mph 64 % 0.00 in 0.0 W/m2 CLR
04:15 58.1 °F 46.4 °F 30.26 in WNW 17.3 mph 17.3 mph 65 % 0.00 in 0.0 W/m2 CLR
04:20 58.1 °F 46.0 °F 30.26 in WNW 15.0 mph 15.0 mph 64 % 0.00 in 0.0 W/m2 CLR
04:25 58.1 °F 46.0 °F 30.26 in WNW 15.0 mph 15.0 mph 64 % 0.00 in 0.0 W/m2 CLR
04:30 58.1 °F 46.0 °F 30.26 in West 19.0 mph 19.0 mph 64 % 0.00 in 0.0 W/m2 CLR
04:35 58.0 °F 45.9 °F 30.25 in WNW 17.3 mph 17.3 mph 64 % 0.00 in 0.0 W/m2 CLR
04:40 57.9 °F 46.2 °F 30.25 in WNW 18.4 mph 18.4 mph 65 % 0.00 in 0.0 W/m2 CLR
04:45 57.8 °F 46.1 °F 30.25 in WNW 17.3 mph 17.3 mph 65 % 0.00 in 0.0 W/m2 CLR
04:50 57.8 °F 46.1 °F 30.25 in WNW 17.3 mph 17.3 mph 65 % 0.00 in 0.0 W/m2 CLR
04:55 57.7 °F 46.0 °F 30.26 in West 17.3 mph 17.3 mph 65 % 0.00 in 0.0 W/m2 CLR
05:00 57.6 °F 45.9 °F 30.26 in West 15.0 mph 15.0 mph 65 % 0.00 in 0.0 W/m2 CLR
05:05 57.5 °F 46.2 °F 30.26 in West 17.3 mph 17.3 mph 66 % 0.00 in 0.0 W/m2 CLR
05:10 57.4 °F 45.7 °F 30.26 in West 12.0 mph 12.0 mph 65 % 0.00 in 0.0 W/m2 CLR
05:15 57.4 °F 46.1 °F 30.26 in West 11.5 mph 11.5 mph 66 % 0.00 in 0.0 W/m2 CLR
05:20 57.3 °F 46.0 °F 30.26 in West 18.4 mph 18.4 mph 66 % 0.00 in 0.0 W/m2 CLR
05:25 57.2 °F 45.9 °F 30.26 in West 16.1 mph 16.1 mph 66 % 0.00 in 0.0 W/m2 CLR
05:30 57.2 °F 45.9 °F 30.26 in West 11.5 mph 11.5 mph 66 % 0.00 in 0.0 W/m2 CLR
05:35 57.1 °F 45.8 °F 30.26 in WNW 15.0 mph 15.0 mph 66 % 0.00 in 0.0 W/m2 CLR
05:40 57.0 °F 45.7 °F 30.26 in West 16.0 mph 16.0 mph 66 % 0.00 in 0.0 W/m2 CLR
05:45 57.0 °F 45.7 °F 30.26 in WNW 15.0 mph 15.0 mph 66 % 0.00 in 0.0 W/m2 CLR
05:50 57.0 °F 45.7 °F 30.25 in West 19.6 mph 19.6 mph 66 % 0.00 in 0.0 W/m2 CLR
05:55 57.0 °F 45.7 °F 30.26 in WNW 17.3 mph 17.3 mph 66 % 0.00 in 0.0 W/m2 CLR
06:00 56.9 °F 45.7 °F 30.26 in West 13.8 mph 13.8 mph 66 % 0.00 in 0.0 W/m2 CLR
06:05 57.0 °F 45.7 °F 30.26 in West 13.8 mph 13.8 mph 66 % 0.00 in 0.0 W/m2 CLR
06:10 57.0 °F 45.7 °F 30.26 in West 12.7 mph 12.7 mph 66 % 0.00 in 0.0 W/m2 CLR
06:15 57.0 °F 45.3 °F 30.26 in WSW 16.1 mph 16.1 mph 65 % 0.00 in 0.0 W/m2 CLR
06:20 57.2 °F 45.5 °F 30.26 in WNW 16.1 mph 16.1 mph 65 % 0.00 in 0.0 W/m2 CLR
06:25 57.1 °F 45.4 °F 30.26 in WNW 13.8 mph 13.8 mph 65 % 0.00 in 0.0 W/m2 OVC
06:26 57.1 °F 45.4 °F 30.26 in WNW 12.7 mph 12.7 mph 65 % 0.00 in 0.0 W/m2 OVC
06:31 57.1 °F 45.4 °F 30.26 in WNW 12.7 mph 12.7 mph 65 % 0.00 in 0.0 W/m2 OVC
06:36 57.0 °F 45.3 °F 30.27 in WNW 12.0 mph 12.0 mph 65 % 0.00 in 5.0 W/m2 OVC
06:41 57.0 °F 45.3 °F 30.27 in WSW 11.5 mph 11.5 mph 65 % 0.00 in 9.0 W/m2 BKN
06:46 56.9 °F 45.3 °F 30.27 in West 13.8 mph 13.8 mph 65 % 0.00 in 11.0 W/m2 BKN
06:51 56.8 °F 45.2 °F 30.27 in WSW 10.4 mph 10.4 mph 65 % 0.00 in 12.0 W/m2 BKN
06:56 56.9 °F 45.3 °F 30.27 in West 11.5 mph 11.5 mph 65 % 0.00 in 16.0 W/m2 BKN
07:01 56.9 °F 45.3 °F 30.27 in WSW 11.0 mph 11.0 mph 65 % 0.00 in 16.0 W/m2 BKN
07:06 56.9 °F 45.3 °F 30.27 in West 12.0 mph 12.0 mph 65 % 0.00 in 21.0 W/m2 BKN
07:11 57.0 °F 45.3 °F 30.27 in WSW 11.0 mph 11.0 mph 65 % 0.00 in 32.0 W/m2 BKN
07:16 57.1 °F 45.0 °F 30.27 in West 13.8 mph 13.8 mph 64 % 0.00 in 42.0 W/m2 BKN
07:21 57.2 °F 45.1 °F 30.27 in West 11.5 mph 11.5 mph 64 % 0.00 in 53.0 W/m2 SCT
07:26 57.3 °F 45.2 °F 30.27 in West 10.0 mph 10.0 mph 64 % 0.00 in 63.0 W/m2 SCT
07:31 57.5 °F 45.4 °F 30.27 in West 13.8 mph 13.8 mph 64 % 0.00 in 77.0 W/m2 FEW
07:36 57.6 °F 45.1 °F 30.27 in West 11.5 mph 11.5 mph 63 % 0.00 in 90.0 W/m2 FEW
07:41 57.9 °F 45.4 °F 30.27 in WNW 13.8 mph 13.8 mph 63 % 0.00 in 105.0 W/m2 CLR
07:46 58.1 °F 45.6 °F 30.28 in West 13.8 mph 13.8 mph 63 % 0.00 in 121.0 W/m2 CLR
07:51 58.3 °F 45.3 °F 30.28 in West 15.0 mph 15.0 mph 62 % 0.00 in 139.0 W/m2 CLR
07:56 58.5 °F 45.5 °F 30.27 in WNW 11.5 mph 11.5 mph 62 % 0.00 in 153.0 W/m2 CLR
08:01 58.7 °F 45.7 °F 30.28 in West 14.0 mph 14.0 mph 62 % 0.00 in 169.0 W/m2 CLR
08:06 58.9 °F 45.5 °F 30.28 in WNW 18.4 mph 18.4 mph 61 % 0.00 in 186.0 W/m2 CLR
08:11 59.0 °F 45.6 °F 30.28 in West 18.4 mph 18.4 mph 61 % 0.00 in 206.0 W/m2 CLR
08:16 59.3 °F 45.8 °F 30.28 in NW 16.1 mph 16.1 mph 61 % 0.00 in 221.0 W/m2 CLR
08:21 59.6 °F 46.1 °F 30.28 in WSW 15.0 mph 15.0 mph 61 % 0.00 in 237.0 W/m2 CLR
08:26 59.8 °F 46.3 °F 30.28 in West 12.7 mph 12.7 mph 61 % 0.00 in 251.0 W/m2 CLR
08:31 59.9 °F 46.0 °F 30.28 in WNW 18.4 mph 18.4 mph 60 % 0.00 in 269.0 W/m2 CLR
08:36 60.2 °F 46.3 °F 30.28 in West 12.7 mph 12.7 mph 60 % 0.00 in 285.0 W/m2 CLR
08:41 60.1 °F 46.2 °F 30.28 in West 20.7 mph 20.7 mph 60 % 0.00 in 299.0 W/m2 CLR
08:46 60.0 °F 46.1 °F 30.28 in NW 17.3 mph 17.3 mph 60 % 0.00 in 313.0 W/m2 CLR
08:51 60.5 °F 46.5 °F 30.28 in WNW 19.6 mph 19.6 mph 60 % 0.00 in 329.0 W/m2 CLR
08:56 61.0 °F 46.6 °F 30.28 in WNW 11.5 mph 11.5 mph 59 % 0.00 in 346.0 W/m2 CLR
09:01 61.4 °F 46.5 °F 30.28 in West 19.6 mph 19.6 mph 58 % 0.00 in 362.0 W/m2 CLR
09:06 61.4 °F 46.9 °F 30.28 in WNW 19.6 mph 19.6 mph 59 % 0.00 in 376.0 W/m2 CLR
09:11 61.2 °F 46.8 °F 30.28 in NW 19.6 mph 19.6 mph 59 % 0.00 in 390.0 W/m2 CLR
09:16 61.3 °F 46.8 °F 30.28 in WNW 17.3 mph 17.3 mph 59 % 0.00 in 408.0 W/m2 CLR
09:21 61.8 °F 46.9 °F 30.28 in West 18.4 mph 18.4 mph 58 % 0.00 in 422.0 W/m2 CLR
09:26 62.3 °F 47.8 °F 30.28 in West 12.0 mph 12.0 mph 59 % 0.00 in 439.0 W/m2 CLR
09:31 62.1 °F 47.1 °F 30.28 in West 16.1 mph 16.1 mph 58 % 0.00 in 454.0 W/m2 CLR
09:36 62.3 °F 47.3 °F 30.28 in NW 16.0 mph 16.0 mph 58 % 0.00 in 475.0 W/m2 CLR
09:41 62.8 °F 47.3 °F 30.28 in WNW 20.0 mph 20.0 mph 57 % 0.00 in 487.0 W/m2 CLR
09:47 62.8 °F 47.8 °F 30.28 in West 13.8 mph 13.8 mph 58 % 0.00 in 499.0 W/m2 CLR
09:52 62.9 °F 47.4 °F 30.28 in West 17.3 mph 17.3 mph 57 % 0.00 in 526.0 W/m2 CLR
09:57 63.5 °F 48.0 °F 30.28 in West 18.4 mph 18.4 mph 57 % 0.00 in 538.0 W/m2 CLR
10:02 63.1 °F 48.1 °F 30.27 in NW 15.0 mph 15.0 mph 58 % 0.00 in 573.0 W/m2 CLR
10:07 63.7 °F 48.2 °F 30.27 in WNW 16.1 mph 16.1 mph 57 % 0.00 in 564.0 W/m2 CLR
10:12 64.3 °F 47.8 °F 30.27 in NW 17.0 mph 17.0 mph 55 % 0.00 in 577.0 W/m2 CLR
10:17 64.4 °F 47.9 °F 30.27 in NNW 19.6 mph 19.6 mph 55 % 0.00 in 596.0 W/m2 CLR
10:22 64.3 °F 47.8 °F 30.27 in West 20.7 mph 20.7 mph 55 % 0.00 in 601.0 W/m2 CLR
10:27 64.3 °F 47.8 °F 30.27 in WNW 19.6 mph 19.6 mph 55 % 0.00 in 621.0 W/m2 CLR
10:32 64.8 °F 48.2 °F 30.27 in NNW 17.3 mph 17.3 mph 55 % 0.00 in 633.0 W/m2 CLR
10:37 65.2 °F 48.6 °F 30.27 in NW 12.7 mph 12.7 mph 55 % 0.00 in 643.0 W/m2 CLR
10:42 65.9 °F 48.3 °F 30.27 in WNW 19.6 mph 19.6 mph 53 % 0.00 in 657.0 W/m2 CLR
10:47 65.8 °F 48.2 °F 30.27 in NNW 17.3 mph 17.3 mph 53 % 0.00 in 670.0 W/m2 CLR
10:52 66.1 °F 48.5 °F 30.27 in NW 17.3 mph 17.3 mph 53 % 0.00 in 682.0 W/m2 CLR
10:58 66.2 °F 48.6 °F 30.27 in NW 21.0 mph 21.0 mph 53 % 0.00 in 694.0 W/m2 CLR
11:02 66.2 °F 48.0 °F 30.27 in WNW 15.0 mph 15.4 mph 52 % 0.00 in 707.0 W/m2 CLR
11:07 66.5 °F 48.3 °F 30.27 in West 19.6 mph 19.6 mph 52 % 0.00 in 717.0 W/m2 CLR
11:12 66.5 °F 48.3 °F 30.27 in NW 15.0 mph 15.0 mph 52 % 0.00 in 731.0 W/m2 CLR
11:17 67.3 °F 49.1 °F 30.27 in NW 11.5 mph 11.5 mph 52 % 0.00 in 740.0 W/m2 CLR
11:23 68.0 °F 49.2 °F 30.26 in West 16.0 mph 16.0 mph 51 % 0.00 in 752.0 W/m2 CLR
11:28 67.8 °F 49.0 °F 30.27 in West 18.4 mph 18.4 mph 51 % 0.00 in 763.0 W/m2 CLR
11:33 68.2 °F 48.3 °F 30.27 in WNW 15.0 mph 15.0 mph 49 % 0.00 in 775.0 W/m2 CLR
11:38 68.0 °F 48.7 °F 30.27 in NNW 15.0 mph 15.0 mph 50 % 0.00 in 786.0 W/m2 CLR
11:43 68.4 °F 48.5 °F 30.27 in WNW 19.6 mph 19.6 mph 49 % 0.00 in 796.0 W/m2 CLR
11:48 68.5 °F 48.6 °F 30.27 in WNW 11.5 mph 11.5 mph 49 % 0.00 in 803.0 W/m2 CLR
11:53 68.4 °F 48.5 °F 30.26 in West 15.0 mph 15.0 mph 49 % 0.00 in 814.0 W/m2 CLR
11:58 67.9 °F 48.0 °F 30.26 in NW 11.5 mph 11.5 mph 49 % 0.00 in 823.0 W/m2 CLR
12:03 68.4 °F 48.5 °F 30.26 in West 12.7 mph 12.7 mph 49 % 0.00 in 831.0 W/m2 CLR
12:08 69.3 °F 49.3 °F 30.26 in WNW 16.1 mph 16.1 mph 49 % 0.00 in 837.0 W/m2 CLR
12:13 70.1 °F 48.9 °F 30.26 in NNW 16.1 mph 16.1 mph 47 % 0.00 in 849.0 W/m2 CLR
12:18 70.3 °F 49.1 °F 30.26 in West 15.0 mph 15.0 mph 47 % 0.00 in 858.0 W/m2 CLR
12:23 70.4 °F 49.2 °F 30.26 in NW 13.8 mph 13.8 mph 47 % 0.00 in 865.0 W/m2 CLR
12:28 70.7 °F 48.9 °F 30.26 in WNW 18.4 mph 18.4 mph 46 % 0.00 in 872.0 W/m2 CLR
12:33 70.8 °F 49.0 °F 30.26 in WNW 18.0 mph 18.0 mph 46 % 0.00 in 881.0 W/m2 CLR
12:38 71.2 °F 48.8 °F 30.26 in WNW 14.0 mph 14.0 mph 45 % 0.00 in 886.0 W/m2 CLR
12:43 70.7 °F 48.9 °F 30.25 in WNW 16.1 mph 16.1 mph 46 % 0.00 in 891.0 W/m2 CLR
12:48 71.1 °F 48.7 °F 30.25 in NNW 10.4 mph 10.4 mph 45 % 0.00 in 896.0 W/m2 CLR
12:49 71.2 °F 49.4 °F 30.25 in NNW 15.0 mph 15.0 mph 46 % 0.00 in 896.0 W/m2 CLR
12:54 71.7 °F 49.2 °F 30.25 in North 16.1 mph 16.1 mph 45 % 0.00 in 902.0 W/m2 CLR
12:59 71.9 °F 49.4 °F 30.25 in NNW 13.8 mph 13.8 mph 45 % 0.00 in 909.0 W/m2 CLR
13:04 72.5 °F 49.3 °F 30.25 in NW 15.0 mph 15.0 mph 44 % 0.00 in 916.0 W/m2 CLR
13:09 72.6 °F 49.4 °F 30.25 in West 19.6 mph 19.6 mph 44 % 0.00 in 919.0 W/m2 CLR
13:14 72.6 °F 49.4 °F 30.25 in West 12.7 mph 12.7 mph 44 % 0.00 in 923.0 W/m2 CLR
13:19 72.4 °F 49.9 °F 30.25 in NW 14.0 mph 14.0 mph 45 % 0.00 in 926.0 W/m2 CLR
13:24 73.1 °F 49.9 °F 30.25 in WNW 9.2 mph 9.2 mph 44 % 0.00 in 930.0 W/m2 CLR
13:29 73.8 °F 49.3 °F 30.25 in North 13.8 mph 13.8 mph 42 % 0.00 in 932.0 W/m2 CLR
13:34 73.9 °F 49.4 °F 30.25 in WNW 14.0 mph 14.0 mph 42 % 0.00 in 935.0 W/m2 CLR
13:39 73.8 °F 49.9 °F 30.24 in NNW 10.4 mph 10.4 mph 43 % 0.00 in 937.0 W/m2 CLR
13:44 74.7 °F 49.4 °F 30.24 in NNW 16.1 mph 16.1 mph 41 % 0.00 in 939.0 W/m2 CLR
13:49 74.8 °F 49.5 °F 30.24 in NNW 13.8 mph 13.8 mph 41 % 0.00 in 942.0 W/m2 CLR
13:54 75.0 °F 49.0 °F 30.24 in NW 13.0 mph 13.0 mph 40 % 0.00 in 942.0 W/m2 CLR
13:59 74.5 °F 49.2 °F 30.24 in WNW 11.5 mph 11.5 mph 41 % 0.00 in 942.0 W/m2 CLR
14:04 74.6 °F 49.3 °F 30.24 in WNW 14.0 mph 14.0 mph 41 % 0.00 in 940.0 W/m2 CLR
14:09 75.1 °F 49.1 °F 30.23 in WNW 13.8 mph 13.8 mph 40 % 0.00 in 942.0 W/m2 CLR
14:14 75.1 °F 49.1 °F 30.23 in WNW 16.1 mph 16.1 mph 40 % 0.00 in 942.0 W/m2 CLR
14:19 75.3 °F 49.3 °F 30.23 in WNW 13.8 mph 13.8 mph 40 % 0.00 in 944.0 W/m2 CLR
14:24 75.6 °F 49.6 °F 30.23 in NW 18.4 mph 18.4 mph 40 % 0.00 in 940.0 W/m2 CLR
14:29 75.8 °F 49.1 °F 30.23 in NNW 11.5 mph 11.5 mph 39 % 0.00 in 939.0 W/m2 CLR
14:34 76.4 °F 49.6 °F 30.23 in NW 16.1 mph 16.1 mph 39 % 0.00 in 935.0 W/m2 CLR
14:39 76.2 °F 49.4 °F 30.23 in NNW 11.5 mph 11.5 mph 39 % 0.00 in 933.0 W/m2 CLR
14:44 76.4 °F 49.6 °F 30.22 in West 13.8 mph 13.8 mph 39 % 0.00 in 932.0 W/m2 CLR
14:49 76.3 °F 49.5 °F 30.22 in NW 10.0 mph 10.0 mph 39 % 0.00 in 928.0 W/m2 CLR
14:54 76.6 °F 49.8 °F 30.22 in NW 18.4 mph 18.4 mph 39 % 0.00 in 923.0 W/m2 CLR
14:59 76.8 °F 50.0 °F 30.22 in WNW 8.0 mph 8.0 mph 39 % 0.00 in 918.0 W/m2 CLR
15:04 76.9 °F 49.4 °F 30.22 in NW 18.4 mph 18.4 mph 38 % 0.00 in 919.0 W/m2 CLR
15:09 76.8 °F 49.3 °F 30.21 in NW 17.3 mph 17.3 mph 38 % 0.00 in 911.0 W/m2 CLR
15:10 76.8 °F 49.3 °F 30.21 in NW 17.3 mph 17.3 mph 38 % 0.00 in 911.0 W/m2 CLR
15:15 77.2 °F 48.2 °F 30.21 in NW 10.4 mph 10.4 mph 36 % 0.00 in 905.0 W/m2 CLR
15:20 77.0 °F 49.4 °F 30.21 in NW 8.1 mph 8.1 mph 38 % 0.00 in 900.0 W/m2 CLR
15:25 77.6 °F 49.3 °F 30.21 in North 13.8 mph 13.8 mph 37 % 0.00 in 895.0 W/m2 CLR
15:30 77.9 °F 49.5 °F 30.20 in NW 12.7 mph 12.7 mph 37 % 0.00 in 891.0 W/m2 CLR
15:35 77.9 °F 49.5 °F 30.20 in WNW 2.3 mph   37 % 0.00 in 881.0 W/m2 CLR
15:40 78.2 °F 49.8 °F 30.20 in North 13.8 mph 13.8 mph 37 % 0.00 in 875.0 W/m2 CLR
15:45 78.3 °F 49.9 °F 30.20 in WNW 11.5 mph 11.5 mph 37 % 0.00 in 868.0 W/m2 CLR
15:50 78.2 °F 49.8 °F 30.20 in NW 11.5 mph 11.5 mph 37 % 0.00 in 860.0 W/m2 CLR
15:55 78.5 °F 50.1 °F 30.19 in WNW 12.0 mph 12.0 mph 37 % 0.00 in 853.0 W/m2 CLR
16:00 79.1 °F 49.8 °F 30.19 in NNW 15.0 mph 15.0 mph 36 % 0.00 in 847.0 W/m2 CLR
16:05 79.1 °F 49.8 °F 30.19 in WNW 12.7 mph 12.7 mph 36 % 0.00 in 837.0 W/m2 CLR
16:10 78.8 °F 49.6 °F 30.19 in NW 11.5 mph 11.5 mph 36 % 0.00 in 826.0 W/m2 CLR
16:15 79.1 °F 49.8 °F 30.19 in West 12.7 mph 12.7 mph 36 % 0.00 in 819.0 W/m2 CLR
16:20 78.9 °F 49.7 °F 30.19 in NNW 16.1 mph 16.1 mph 36 % 0.00 in 812.0 W/m2 CLR
16:25 78.7 °F 49.5 °F 30.19 in NNW 12.7 mph 12.7 mph 36 % 0.00 in 800.0 W/m2 CLR
16:30 79.1 °F 49.8 °F 30.18 in WNW 11.5 mph 11.5 mph 36 % 0.00 in 788.0 W/m2 CLR
16:35 79.6 °F 49.5 °F 30.18 in NW 13.8 mph 13.8 mph 35 % 0.00 in 780.0 W/m2 CLR
16:40 79.9 °F 49.8 °F 30.18 in West 16.1 mph 16.1 mph 35 % 0.00 in 768.0 W/m2 CLR
16:45 80.1 °F 50.0 °F 30.18 in WNW 10.4 mph 10.4 mph 35 % 0.00 in 761.0 W/m2 CLR
16:50 80.3 °F 50.1 °F 30.18 in NW 5.8 mph 5.8 mph 35 % 0.00 in 749.0 W/m2 CLR
16:55 80.3 °F 50.1 °F 30.17 in NW 13.8 mph 13.8 mph 35 % 0.00 in 738.0 W/m2 CLR
17:00 80.2 °F 50.1 °F 30.17 in WNW 11.5 mph 11.5 mph 35 % 0.00 in 728.0 W/m2 CLR
17:05 80.3 °F 50.1 °F 30.17 in WSW 1.2 mph 1.2 mph 35 % 0.00 in 717.0 W/m2 CLR
17:10 80.6 °F 50.4 °F 30.17 in NNW 11.5 mph 11.5 mph 35 % 0.00 in 703.0 W/m2 CLR
17:15 80.8 °F 49.8 °F 30.17 in West 11.5 mph 11.5 mph 34 % 0.00 in 693.0 W/m2 CLR
17:20 80.7 °F 49.7 °F 30.17 in WNW 16.1 mph 16.1 mph 34 % 0.00 in 679.0 W/m2 CLR
17:25 80.8 °F 50.6 °F 30.17 in NNE 10.4 mph 10.4 mph 35 % 0.00 in 668.0 W/m2 CLR
17:30 81.2 °F 50.2 °F 30.17 in NW 15.0 mph 15.0 mph 34 % 0.00 in 654.0 W/m2 CLR
17:35 81.0 °F 50.0 °F 30.16 in West 15.0 mph 15.0 mph 34 % 0.00 in 642.0 W/m2 CLR
17:40 80.5 °F 50.3 °F 30.16 in WNW 6.9 mph 6.9 mph 35 % 0.00 in 628.0 W/m2 CLR
17:45 80.8 °F 50.6 °F 30.16 in WNW 15.0 mph 15.0 mph 35 % 0.00 in 613.0 W/m2 CLR
17:50 80.9 °F 50.7 °F 30.16 in North 12.7 mph 12.7 mph 35 % 0.00 in 598.0 W/m2 CLR
17:55 81.3 °F 51.0 °F 30.16 in NW 8.1 mph 8.1 mph 35 % 0.00 in 584.0 W/m2 CLR
18:00 81.7 °F 50.6 °F 30.16 in WNW 8.1 mph 8.1 mph 34 % 0.00 in 570.0 W/m2 CLR
18:05 81.6 °F 50.5 °F 30.16 in WNW 6.9 mph 6.9 mph 34 % 0.00 in 559.0 W/m2 CLR
18:10 81.5 °F 50.4 °F 30.15 in NW 12.0 mph 12.0 mph 34 % 0.00 in 545.0 W/m2 CLR
18:15 81.3 °F 50.2 °F 30.15 in NNE 3.5 mph 3.5 mph 34 % 0.00 in 527.0 W/m2 CLR
18:20 81.6 °F 50.5 °F 30.15 in North 6.9 mph 6.9 mph 34 % 0.00 in 513.0 W/m2 CLR
18:25 81.8 °F 50.7 °F 30.15 in NNW 13.8 mph 13.8 mph 34 % 0.00 in 499.0 W/m2 CLR
18:30 81.9 °F 50.8 °F 30.15 in NW 8.1 mph 8.1 mph 34 % 0.00 in 483.0 W/m2 CLR
18:35 82.2 °F 51.0 °F 30.15 in NNW 9.0 mph 9.0 mph 34 % 0.00 in 466.0 W/m2 CLR
18:40 81.7 °F 50.6 °F 30.15 in North 12.7 mph 12.7 mph 34 % 0.00 in 452.0 W/m2 CLR
18:45 81.7 °F 50.6 °F 30.15 in NNW 8.0 mph 8.0 mph 34 % 0.00 in 438.0 W/m2 CLR
18:50 82.0 °F 50.9 °F 30.14 in NW 2.3 mph 2.3 mph 34 % 0.00 in 424.0 W/m2 CLR
18:55 82.5 °F 50.5 °F 30.14 in Calm   0.2 mph 33 % 0.00 in 408.0 W/m2 CLR
19:00 82.3 °F 51.1 °F 30.15 in NW 15.0 mph 15.0 mph 34 % 0.00 in 390.0 W/m2 CLR
19:05 81.8 °F 50.7 °F 30.15 in NNW 9.0 mph 9.0 mph 34 % 0.00 in 374.0 W/m2 CLR
19:10 81.7 °F 50.6 °F 30.15 in NNW 11.5 mph 11.5 mph 34 % 0.00 in 360.0 W/m2 CLR
19:15 81.6 °F 50.5 °F 30.14 in NNW 15.0 mph 15.0 mph 34 % 0.00 in 346.0 W/m2 CLR
19:20 81.2 °F 50.9 °F 30.15 in NW 13.8 mph 13.8 mph 35 % 0.00 in 327.0 W/m2 CLR
19:25 81.2 °F 50.9 °F 30.15 in NW 12.7 mph 12.7 mph 35 % 0.00 in 313.0 W/m2 CLR
19:30 81.3 °F 51.0 °F 30.15 in NW 4.0 mph 4.0 mph 35 % 0.00 in 299.0 W/m2 CLR
19:35 81.2 °F 50.2 °F 30.15 in NW 11.5 mph 11.5 mph 34 % 0.00 in 283.0 W/m2 CLR
19:40 81.1 °F 50.9 °F 30.15 in West 12.0 mph 12.0 mph 35 % 0.00 in 265.0 W/m2 CLR
19:45 81.0 °F 50.8 °F 30.14 in NNW 13.0 mph 13.0 mph 35 % 0.00 in 251.0 W/m2 CLR
19:50 81.2 °F 50.9 °F 30.14 in NW 11.5 mph 11.5 mph 35 % 0.00 in 237.0 W/m2 CLR
19:55 81.3 °F 50.2 °F 30.14 in WNW 10.4 mph 10.4 mph 34 % 0.00 in 221.0 W/m2 CLR
20:00 81.0 °F 50.0 °F 30.15 in WNW 11.5 mph 11.5 mph 34 % 0.00 in 200.0 W/m2 CLR
20:05 80.9 °F 49.9 °F 30.15 in NNW 11.0 mph 11.0 mph 34 % 0.00 in 185.0 W/m2 CLR
20:10 80.8 °F 49.8 °F 30.15 in WNW 4.0 mph 4.0 mph 34 % 0.00 in 167.0 W/m2 CLR
20:15 80.9 °F 49.9 °F 30.15 in NNW 3.0 mph 3.0 mph 34 % 0.00 in 151.0 W/m2 CLR
20:20 80.8 °F 49.8 °F 30.15 in WNW 11.5 mph 11.5 mph 34 % 0.00 in 135.0 W/m2 CLR
20:25 80.6 °F 49.6 °F 30.15 in NNW 10.4 mph 10.4 mph 34 % 0.00 in 116.0 W/m2 CLR
20:30 80.4 °F 50.2 °F 30.15 in WNW 11.5 mph 11.5 mph 35 % 0.00 in 100.0 W/m2 CLR
20:35 80.2 °F 50.1 °F 30.15 in NNW 2.3 mph 2.3 mph 35 % 0.00 in 86.0 W/m2 CLR
20:40 79.9 °F 49.8 °F 30.15 in NW 11.5 mph 11.5 mph 35 % 0.00 in 74.0 W/m2 FEW
20:45 79.7 °F 49.6 °F 30.15 in NNW 9.0 mph 9.0 mph 35 % 0.00 in 60.0 W/m2 SCT
20:50 79.6 °F 49.5 °F 30.15 in NNW 6.9 mph 6.9 mph 35 % 0.00 in 19.0 W/m2 BKN
20:55 79.5 °F 49.4 °F 30.15 in NNW 2.3 mph 2.3 mph 35 % 0.00 in 35.0 W/m2 BKN
21:00 79.3 °F 49.3 °F 30.15 in NW 6.9 mph 6.9 mph 35 % 0.00 in 26.0 W/m2 BKN
21:05 79.1 °F 49.1 °F 30.16 in NW 6.9 mph 6.9 mph 35 % 0.00 in 19.0 W/m2 BKN
21:10 78.8 °F 49.6 °F 30.16 in WNW 2.3 mph 2.3 mph 36 % 0.00 in 12.0 W/m2 BKN
21:15 78.3 °F 49.1 °F 30.16 in NW 3.5 mph 3.5 mph 36 % 0.00 in 12.0 W/m2 BKN
21:20 77.9 °F 48.8 °F 30.16 in NW 2.3 mph 2.3 mph 36 % 0.00 in 11.0 W/m2 BKN
21:25 77.5 °F 49.2 °F 30.16 in WNW 3.5 mph 3.5 mph 37 % 0.00 in 9.0 W/m2 BKN
21:30 77.2 °F 48.9 °F 30.16 in NW 3.5 mph 3.5 mph 37 % 0.00 in 5.0 W/m2 BKN
21:35 76.8 °F 48.6 °F 30.16 in Calm     37 % 0.00 in 5.0 W/m2 OVC
21:40 76.5 °F 49.0 °F 30.16 in NW 3.5 mph 3.5 mph 38 % 0.00 in 0.0 W/m2 OVC
21:46 76.1 °F 48.6 °F 30.16 in Calm     38 % 0.00 in 0.0 W/m2 OVC
21:50 75.8 °F 49.1 °F 30.16 in Calm     39 % 0.00 in 0.0 W/m2 CLR
21:56 75.4 °F 48.7 °F 30.17 in Calm     39 % 0.00 in 0.0 W/m2 CLR
22:01 74.7 °F 48.8 °F 30.17 in Calm     40 % 0.00 in 0.0 W/m2 CLR
22:06 74.2 °F 48.3 °F 30.17 in Calm     40 % 0.00 in 0.0 W/m2 CLR
22:11 73.9 °F 48.7 °F 30.17 in Calm     41 % 0.00 in 0.0 W/m2 CLR
22:16 73.7 °F 48.5 °F 30.17 in Calm     41 % 0.00 in 0.0 W/m2 CLR
22:21 73.6 °F 48.4 °F 30.17 in Calm     41 % 0.00 in 0.0 W/m2 CLR
22:26 73.2 °F 48.7 °F 30.18 in Calm     42 % 0.00 in 0.0 W/m2 CLR
22:31 73.1 °F 48.6 °F 30.18 in WNW 4.6 mph 4.6 mph 42 % 0.00 in 0.0 W/m2 CLR
22:32 73.2 °F 48.7 °F 30.18 in WNW 4.6 mph 4.6 mph 42 % 0.00 in 0.0 W/m2 CLR
22:37 73.2 °F 48.7 °F 30.18 in WNW 3.5 mph 3.5 mph 42 % 0.00 in 0.0 W/m2 CLR
22:42 73.2 °F 48.7 °F 30.18 in WNW 3.5 mph 3.5 mph 42 % 0.00 in 0.0 W/m2 CLR
22:47 73.1 °F 48.6 °F 30.18 in WNW 2.3 mph   42 % 0.00 in 0.0 W/m2 CLR
22:52 72.9 °F 48.5 °F 30.19 in Calm     42 % 0.00 in 0.0 W/m2 CLR
22:57 72.8 °F 48.4 °F 30.19 in WNW 10.4 mph 10.4 mph 42 % 0.00 in 0.0 W/m2 CLR
23:02 72.8 °F 48.4 °F 30.19 in NW 3.5 mph 3.5 mph 42 % 0.00 in 0.0 W/m2 CLR
23:07 72.7 °F 48.9 °F 30.19 in West 8.1 mph 8.1 mph 43 % 0.00 in 0.0 W/m2 CLR
23:12 72.8 °F 48.4 °F 30.19 in WNW 7.0 mph 7.0 mph 42 % 0.00 in 0.0 W/m2 CLR
23:17 72.7 °F 48.9 °F 30.19 in WNW 4.6 mph 4.6 mph 43 % 0.00 in 0.0 W/m2 CLR
23:22 72.6 °F 48.8 °F 30.19 in WNW 3.5 mph 3.5 mph 43 % 0.00 in 0.0 W/m2 CLR
23:27 72.4 °F 48.6 °F 30.20 in West 3.0 mph 3.0 mph 43 % 0.00 in 0.0 W/m2 CLR
23:32 72.1 °F 49.0 °F 30.20 in West 4.6 mph 4.6 mph 44 % 0.00 in 0.0 W/m2 CLR
23:38 72.0 °F 48.9 °F 30.20 in WNW 5.8 mph 5.8 mph 44 % 0.00 in 0.0 W/m2 CLR
23:43 71.8 °F 48.7 °F 30.20 in West 4.6 mph 4.6 mph 44 % 0.00 in 0.0 W/m2 CLR
23:48 71.6 °F 49.1 °F 30.20 in Calm     45 % 0.00 in 0.0 W/m2 CLR
23:53 71.3 °F 49.4 °F 30.20 in West 2.3 mph 2.3 mph 46 % 0.00 in 0.0 W/m2 CLR
23:58 71.2 °F 49.4 °F 30.20 in Calm     46 % 0.00 in 0.0 W/m2 CLR
Lo Temps de Massalio
Compliments of Weather Underground - 1.25 mb